ELA weather

El Arenoso Airport
Guaymas, Sonora, Mexico

Public forecast

Using degrees Celsius for public forecast. Weather courtesy of forecast.io.

METAR (pilot weather report)

Report is more than 6 hours old.

Closest report is General José María Yáñez International Airport, 23.3 nm (43.2 km) SW. Retrieved 2019/06/18 01:55 UTC (6 hours ago):

MMGM 180155Z 28008KT 10SM SKC 31/20 A2972

TAF (pilot weather forecast)

Closest forecast is General José María Yáñez International Airport, 23.3 nm (43.2 km) SW. Retrieved 2019/06/18 06:32 UTC (1 hour ago):

TAF MMGM 180525Z 1806/1906 26005KT P6SM SKC FM181800 22012KT P6SM SKC FM190300 24005KT P6SM SKC